sensor_id;sensor_type;location;lat;lon;timestamp;pressure;altitude;pressure_sealevel;temperature;humidity
70437;BME280;57877;39.750;-104.894;2023-07-13T00:01:25;83676.11;;;33.92;10.58
70437;BME280;57877;39.750;-104.894;2023-07-13T00:03:50;83668.14;;;33.82;10.25
70437;BME280;57877;39.750;-104.894;2023-07-13T00:06:15;83664.10;;;33.74;10.63
70437;BME280;57877;39.750;-104.894;2023-07-13T00:08:40;83665.27;;;34.60;10.79
70437;BME280;57877;39.750;-104.894;2023-07-13T00:11:05;83663.92;;;34.44;10.82
70437;BME280;57877;39.750;-104.894;2023-07-13T00:13:31;83663.15;;;34.40;10.86
70437;BME280;57877;39.750;-104.894;2023-07-13T00:15:57;83660.28;;;35.33;10.95
70437;BME280;57877;39.750;-104.894;2023-07-13T00:18:21;83659.78;;;34.37;10.18
70437;BME280;57877;39.750;-104.894;2023-07-13T00:20:46;83658.24;;;35.09;10.30
70437;BME280;57877;39.750;-104.894;2023-07-13T00:23:11;83660.76;;;34.08;10.51
70437;BME280;57877;39.750;-104.894;2023-07-13T00:25:36;83663.84;;;33.85;10.74
70437;BME280;57877;39.750;-104.894;2023-07-13T00:28:01;83664.44;;;33.73;10.49
70437;BME280;57877;39.750;-104.894;2023-07-13T00:30:26;83670.13;;;33.87;10.74
70437;BME280;57877;39.750;-104.894;2023-07-13T00:32:51;83667.32;;;34.02;10.51
70437;BME280;57877;39.750;-104.894;2023-07-13T00:35:17;83668.18;;;33.53;10.70
70437;BME280;57877;39.750;-104.894;2023-07-13T00:37:42;83669.10;;;33.02;10.63
70437;BME280;57877;39.750;-104.894;2023-07-13T00:40:10;83667.49;;;33.99;10.73
70437;BME280;57877;39.750;-104.894;2023-07-13T00:42:32;83664.53;;;33.55;10.85
70437;BME280;57877;39.750;-104.894;2023-07-13T00:45:02;83661.83;;;33.43;10.95
70437;BME280;57877;39.750;-104.894;2023-07-13T00:47:22;83667.54;;;32.52;13.98
70437;BME280;57877;39.750;-104.894;2023-07-13T00:49:47;83661.59;;;32.86;11.50
70437;BME280;57877;39.750;-104.894;2023-07-13T00:52:12;83660.90;;;33.06;11.42
70437;BME280;57877;39.750;-104.894;2023-07-13T00:54:41;83656.90;;;32.90;11.47
70437;BME280;57877;39.750;-104.894;2023-07-13T00:57:05;83653.15;;;32.77;11.91
70437;BME280;57877;39.750;-104.894;2023-07-13T00:59:28;83654.35;;;32.67;12.25
70437;BME280;57877;39.750;-104.894;2023-07-13T01:01:53;83650.27;;;32.10;13.03
70437;BME280;57877;39.750;-104.894;2023-07-13T01:04:18;83654.43;;;31.46;13.04
70437;BME280;57877;39.750;-104.894;2023-07-13T01:06:44;83652.52;;;31.44;13.09
70437;BME280;57877;39.750;-104.894;2023-07-13T01:09:09;83646.99;;;30.69;13.31
70437;BME280;57877;39.750;-104.894;2023-07-13T01:11:33;83647.55;;;30.55;13.51
70437;BME280;57877;39.750;-104.894;2023-07-13T01:13:58;83646.36;;;30.91;13.14
70437;BME280;57877;39.750;-104.894;2023-07-13T01:16:28;83647.50;;;30.86;12.91
70437;BME280;57877;39.750;-104.894;2023-07-13T01:18:49;83647.96;;;30.97;12.87
70437;BME280;57877;39.750;-104.894;2023-07-13T01:21:14;83647.52;;;31.12;12.93
70437;BME280;57877;39.750;-104.894;2023-07-13T01:23:39;83645.95;;;31.49;12.73
70437;BME280;57877;39.750;-104.894;2023-07-13T01:26:04;83645.40;;;30.60;13.12
70437;BME280;57877;39.750;-104.894;2023-07-13T01:28:29;83645.55;;;30.70;13.41
70437;BME280;57877;39.750;-104.894;2023-07-13T01:30:55;83644.64;;;31.08;13.51
70437;BME280;57877;39.750;-104.894;2023-07-13T01:33:19;83647.23;;;31.58;13.00
70437;BME280;57877;39.750;-104.894;2023-07-13T01:35:44;83646.97;;;31.88;12.65
70437;BME280;57877;39.750;-104.894;2023-07-13T01:38:10;83645.32;;;31.51;13.41
70437;BME280;57877;39.750;-104.894;2023-07-13T01:40:35;83644.88;;;30.59;13.76
70437;BME280;57877;39.750;-104.894;2023-07-13T01:43:00;83645.62;;;30.29;13.82
70437;BME280;57877;39.750;-104.894;2023-07-13T01:45:24;83651.56;;;30.00;14.39
70437;BME280;57877;39.750;-104.894;2023-07-13T01:47:49;83651.39;;;30.35;14.45
70437;BME280;57877;39.750;-104.894;2023-07-13T01:50:15;83654.67;;;30.34;14.16
70437;BME280;57877;39.750;-104.894;2023-07-13T01:52:40;83653.26;;;31.29;13.51
70437;BME280;57877;39.750;-104.894;2023-07-13T01:55:05;83650.49;;;31.00;13.54
70437;BME280;57877;39.750;-104.894;2023-07-13T01:57:30;83648.13;;;30.86;13.75
70437;BME280;57877;39.750;-104.894;2023-07-13T01:59:55;83647.56;;;30.29;14.10
70437;BME280;57877;39.750;-104.894;2023-07-13T02:02:20;83647.06;;;30.13;14.24
70437;BME280;57877;39.750;-104.894;2023-07-13T02:04:45;83639.52;;;30.58;14.00
70437;BME280;57877;39.750;-104.894;2023-07-13T02:07:12;83635.67;;;30.63;14.02
70437;BME280;57877;39.750;-104.894;2023-07-13T02:09:37;83637.57;;;30.72;13.97
70437;BME280;57877;39.750;-104.894;2023-07-13T02:12:02;83635.69;;;30.44;14.09
70437;BME280;57877;39.750;-104.894;2023-07-13T02:14:28;83637.50;;;30.54;14.09
70437;BME280;57877;39.750;-104.894;2023-07-13T02:16:54;83642.22;;;30.53;14.44
70437;BME280;57877;39.750;-104.894;2023-07-13T02:19:19;83641.02;;;29.66;14.84
70437;BME280;57877;39.750;-104.894;2023-07-13T02:21:45;83641.57;;;29.98;14.86
70437;BME280;57877;39.750;-104.894;2023-07-13T02:24:10;83642.66;;;29.71;15.09
70437;BME280;57877;39.750;-104.894;2023-07-13T02:26:35;83641.03;;;29.61;15.24
70437;BME280;57877;39.750;-104.894;2023-07-13T02:29:00;83641.01;;;29.50;15.35
70437;BME280;57877;39.750;-104.894;2023-07-13T02:31:25;83639.41;;;29.56;15.35
70437;BME280;57877;39.750;-104.894;2023-07-13T02:33:51;83640.67;;;29.55;15.39
70437;BME280;57877;39.750;-104.894;2023-07-13T02:36:17;83639.43;;;29.80;15.38
70437;BME280;57877;39.750;-104.894;2023-07-13T02:38:42;83636.71;;;28.94;15.89
70437;BME280;57877;39.750;-104.894;2023-07-13T02:41:08;83635.40;;;28.85;16.03
70437;BME280;57877;39.750;-104.894;2023-07-13T02:43:33;83636.22;;;29.51;15.86
70437;BME280;57877;39.750;-104.894;2023-07-13T02:46:00;83641.90;;;29.68;15.68
70437;BME280;57877;39.750;-104.894;2023-07-13T02:48:25;83647.40;;;29.97;15.40
70437;BME280;57877;39.750;-104.894;2023-07-13T02:50:50;83647.11;;;30.54;15.16
70437;BME280;57877;39.750;-104.894;2023-07-13T02:53:15;83651.76;;;30.05;15.41
70437;BME280;57877;39.750;-104.894;2023-07-13T02:55:40;83655.56;;;29.92;15.60
70437;BME280;57877;39.750;-104.894;2023-07-13T02:58:05;83660.85;;;29.96;15.89
70437;BME280;57877;39.750;-104.894;2023-07-13T03:00:30;83662.51;;;30.33;15.58
70437;BME280;57877;39.750;-104.894;2023-07-13T03:02:56;83660.75;;;29.32;16.22
70437;BME280;57877;39.750;-104.894;2023-07-13T03:05:21;83667.40;;;30.29;15.82
70437;BME280;57877;39.750;-104.894;2023-07-13T03:07:45;83668.56;;;30.67;15.72
70437;BME280;57877;39.750;-104.894;2023-07-13T03:10:11;83677.44;;;30.71;15.75
70437;BME280;57877;39.750;-104.894;2023-07-13T03:12:35;83687.01;;;30.83;15.87
70437;BME280;57877;39.750;-104.894;2023-07-13T03:15:00;83698.12;;;30.51;15.93
70437;BME280;57877;39.750;-104.894;2023-07-13T03:17:25;83708.80;;;30.38;16.23
70437;BME280;57877;39.750;-104.894;2023-07-13T03:19:51;83718.67;;;30.43;16.36
70437;BME280;57877;39.750;-104.894;2023-07-13T03:22:16;83725.93;;;30.79;16.33
70437;BME280;57877;39.750;-104.894;2023-07-13T03:24:41;83729.32;;;29.76;17.33
70437;BME280;57877;39.750;-104.894;2023-07-13T03:27:07;83739.41;;;29.29;17.48
70437;BME280;57877;39.750;-104.894;2023-07-13T03:29:30;83747.01;;;29.49;17.28
70437;BME280;57877;39.750;-104.894;2023-07-13T03:31:56;83752.93;;;29.48;17.24
70437;BME280;57877;39.750;-104.894;2023-07-13T03:34:21;83754.55;;;30.09;16.56
70437;BME280;57877;39.750;-104.894;2023-07-13T03:36:46;83757.76;;;29.25;16.76
70437;BME280;57877;39.750;-104.894;2023-07-13T03:39:11;83758.19;;;30.32;16.62
70437;BME280;57877;39.750;-104.894;2023-07-13T03:41:36;83761.42;;;29.79;16.76
70437;BME280;57877;39.750;-104.894;2023-07-13T03:44:01;83767.70;;;30.16;16.80
70437;BME280;57877;39.750;-104.894;2023-07-13T03:46:26;83768.63;;;29.69;17.06
70437;BME280;57877;39.750;-104.894;2023-07-13T03:48:51;83766.53;;;30.03;16.98
70437;BME280;57877;39.750;-104.894;2023-07-13T03:51:17;83761.39;;;29.82;17.41
70437;BME280;57877;39.750;-104.894;2023-07-13T03:53:42;83761.57;;;29.70;17.86
70437;BME280;57877;39.750;-104.894;2023-07-13T03:56:06;83770.48;;;29.34;17.85
70437;BME280;57877;39.750;-104.894;2023-07-13T03:58:33;83772.72;;;29.83;17.56
70437;BME280;57877;39.750;-104.894;2023-07-13T04:00:57;83783.12;;;30.12;17.37
70437;BME280;57877;39.750;-104.894;2023-07-13T04:03:21;83792.05;;;29.74;17.80
70437;BME280;57877;39.750;-104.894;2023-07-13T04:05:46;83796.04;;;30.09;17.63
70437;BME280;57877;39.750;-104.894;2023-07-13T04:08:12;83800.30;;;30.57;17.49
70437;BME280;57877;39.750;-104.894;2023-07-13T04:10:37;83802.03;;;30.23;17.26
70437;BME280;57877;39.750;-104.894;2023-07-13T04:13:02;83804.00;;;30.40;17.14
70437;BME280;57877;39.750;-104.894;2023-07-13T04:15:30;83801.66;;;30.56;17.27
70437;BME280;57877;39.750;-104.894;2023-07-13T04:17:52;83801.79;;;30.33;17.66
70437;BME280;57877;39.750;-104.894;2023-07-13T04:20:17;83803.85;;;29.09;18.27
70437;BME280;57877;39.750;-104.894;2023-07-13T04:22:42;83804.66;;;29.86;17.91
70437;BME280;57877;39.750;-104.894;2023-07-13T04:25:08;83813.03;;;29.89;18.27
70437;BME280;57877;39.750;-104.894;2023-07-13T04:27:33;83812.64;;;29.05;18.98
70437;BME280;57877;39.750;-104.894;2023-07-13T04:29:59;83811.25;;;28.70;19.36
70437;BME280;57877;39.750;-104.894;2023-07-13T04:32:25;83805.24;;;28.79;19.24
70437;BME280;57877;39.750;-104.894;2023-07-13T04:34:50;83805.60;;;29.11;19.26
70437;BME280;57877;39.750;-104.894;2023-07-13T04:37:15;83802.69;;;28.53;19.86
70437;BME280;57877;39.750;-104.894;2023-07-13T04:39:40;83798.88;;;28.52;20.49
70437;BME280;57877;39.750;-104.894;2023-07-13T04:42:06;83799.52;;;28.37;20.60
70437;BME280;57877;39.750;-104.894;2023-07-13T04:44:30;83796.17;;;28.65;20.80
70437;BME280;57877;39.750;-104.894;2023-07-13T04:46:55;83794.50;;;28.44;20.81
70437;BME280;57877;39.750;-104.894;2023-07-13T04:49:21;83793.28;;;28.24;21.08
70437;BME280;57877;39.750;-104.894;2023-07-13T04:51:46;83797.06;;;27.99;21.04
70437;BME280;57877;39.750;-104.894;2023-07-13T04:54:11;83797.51;;;27.52;21.62
70437;BME280;57877;39.750;-104.894;2023-07-13T04:56:36;83795.14;;;27.06;21.84
70437;BME280;57877;39.750;-104.894;2023-07-13T04:59:01;83793.68;;;27.91;21.58
70437;BME280;57877;39.750;-104.894;2023-07-13T05:01:26;83788.16;;;28.06;21.23
70437;BME280;57877;39.750;-104.894;2023-07-13T05:03:51;83786.76;;;28.36;20.45
70437;BME280;57877;39.750;-104.894;2023-07-13T05:06:17;83792.55;;;28.20;21.02
70437;BME280;57877;39.750;-104.894;2023-07-13T05:08:42;83795.32;;;27.62;21.01
70437;BME280;57877;39.750;-104.894;2023-07-13T05:11:08;83791.49;;;27.94;20.59
70437;BME280;57877;39.750;-104.894;2023-07-13T05:13:34;83792.00;;;27.16;21.26
70437;BME280;57877;39.750;-104.894;2023-07-13T05:16:02;83788.38;;;27.43;20.99
70437;BME280;57877;39.750;-104.894;2023-07-13T05:18:26;83779.95;;;27.06;21.21
70437;BME280;57877;39.750;-104.894;2023-07-13T05:20:58;83772.49;;;27.34;21.04
70437;BME280;57877;39.750;-104.894;2023-07-13T05:23:17;83772.73;;;27.60;20.59
70437;BME280;57877;39.750;-104.894;2023-07-13T05:25:42;83780.64;;;27.86;20.36
70437;BME280;57877;39.750;-104.894;2023-07-13T05:28:08;83779.40;;;26.89;20.76
70437;BME280;57877;39.750;-104.894;2023-07-13T05:30:34;83780.99;;;27.18;20.58
70437;BME280;57877;39.750;-104.894;2023-07-13T05:32:59;83788.85;;;26.80;20.80
70437;BME280;57877;39.750;-104.894;2023-07-13T05:35:25;83787.80;;;26.69;20.75
70437;BME280;57877;39.750;-104.894;2023-07-13T05:37:51;83790.11;;;26.40;20.46
70437;BME280;57877;39.750;-104.894;2023-07-13T05:40:16;83787.23;;;26.64;20.56
70437;BME280;57877;39.750;-104.894;2023-07-13T05:42:42;83786.49;;;26.14;21.23
70437;BME280;57877;39.750;-104.894;2023-07-13T05:45:09;83785.72;;;25.62;22.00
70437;BME280;57877;39.750;-104.894;2023-07-13T05:47:34;83780.36;;;25.66;22.28
70437;BME280;57877;39.750;-104.894;2023-07-13T05:50:00;83780.23;;;25.53;22.60
70437;BME280;57877;39.750;-104.894;2023-07-13T05:52:26;83776.73;;;25.63;22.95
70437;BME280;57877;39.750;-104.894;2023-07-13T05:54:52;83778.34;;;26.19;22.70
70437;BME280;57877;39.750;-104.894;2023-07-13T05:57:23;83775.68;;;25.71;23.20
70437;BME280;57877;39.750;-104.894;2023-07-13T05:59:44;83771.67;;;25.86;23.45
70437;BME280;57877;39.750;-104.894;2023-07-13T06:02:11;83763.59;;;25.62;23.64
70437;BME280;57877;39.750;-104.894;2023-07-13T06:04:36;83763.04;;;26.04;23.55
70437;BME280;57877;39.750;-104.894;2023-07-13T06:07:02;83762.61;;;25.59;24.02
70437;BME280;57877;39.750;-104.894;2023-07-13T06:09:28;83761.94;;;24.98;24.69
70437;BME280;57877;39.750;-104.894;2023-07-13T06:11:54;83762.03;;;25.53;24.25
70437;BME280;57877;39.750;-104.894;2023-07-13T06:14:20;83762.96;;;25.72;24.03
70437;BME280;57877;39.750;-104.894;2023-07-13T06:16:46;83764.03;;;25.04;24.26
70437;BME280;57877;39.750;-104.894;2023-07-13T06:19:13;83766.67;;;25.69;24.18
70437;BME280;57877;39.750;-104.894;2023-07-13T06:21:39;83763.35;;;25.03;25.00
70437;BME280;57877;39.750;-104.894;2023-07-13T06:24:05;83762.76;;;25.17;25.09
70437;BME280;57877;39.750;-104.894;2023-07-13T06:26:30;83761.34;;;24.85;25.61
70437;BME280;57877;39.750;-104.894;2023-07-13T06:28:57;83762.09;;;24.85;25.82
70437;BME280;57877;39.750;-104.894;2023-07-13T06:31:23;83758.37;;;25.32;25.44
70437;BME280;57877;39.750;-104.894;2023-07-13T06:33:49;83755.42;;;25.22;25.70
70437;BME280;57877;39.750;-104.894;2023-07-13T06:36:15;83752.69;;;25.33;25.64
70437;BME280;57877;39.750;-104.894;2023-07-13T06:38:41;83753.17;;;24.98;26.15
70437;BME280;57877;39.750;-104.894;2023-07-13T06:41:07;83752.02;;;25.22;26.16
70437;BME280;57877;39.750;-104.894;2023-07-13T06:43:33;83754.90;;;25.00;26.29
70437;BME280;57877;39.750;-104.894;2023-07-13T06:45:59;83751.36;;;24.95;26.63
70437;BME280;57877;39.750;-104.894;2023-07-13T06:48:25;83750.64;;;24.35;27.08
70437;BME280;57877;39.750;-104.894;2023-07-13T06:50:51;83749.79;;;24.94;26.52
70437;BME280;57877;39.750;-104.894;2023-07-13T06:53:18;83746.44;;;25.41;26.11
70437;BME280;57877;39.750;-104.894;2023-07-13T06:55:44;83737.98;;;25.51;26.28
70437;BME280;57877;39.750;-104.894;2023-07-13T06:58:09;83729.29;;;24.85;27.25
70437;BME280;57877;39.750;-104.894;2023-07-13T07:00:35;83722.11;;;24.57;27.72
70437;BME280;57877;39.750;-104.894;2023-07-13T07:03:01;83718.36;;;25.04;27.35
70437;BME280;57877;39.750;-104.894;2023-07-13T07:05:27;83718.78;;;24.33;28.26
70437;BME280;57877;39.750;-104.894;2023-07-13T07:07:54;83722.20;;;24.73;27.95
70437;BME280;57877;39.750;-104.894;2023-07-13T07:10:19;83724.81;;;24.74;28.20
70437;BME280;57877;39.750;-104.894;2023-07-13T07:12:45;83727.16;;;25.28;27.16
70437;BME280;57877;39.750;-104.894;2023-07-13T07:15:11;83731.22;;;25.37;27.32
70437;BME280;57877;39.750;-104.894;2023-07-13T07:17:36;83736.81;;;26.48;26.19
70437;BME280;57877;39.750;-104.894;2023-07-13T07:20:03;83736.11;;;25.98;25.45
70437;BME280;57877;39.750;-104.894;2023-07-13T07:22:29;83736.04;;;26.57;24.72
70437;BME280;57877;39.750;-104.894;2023-07-13T07:24:54;83734.25;;;26.29;24.92
70437;BME280;57877;39.750;-104.894;2023-07-13T07:27:21;83728.81;;;26.27;24.90
70437;BME280;57877;39.750;-104.894;2023-07-13T07:29:46;83727.56;;;26.21;25.27
70437;BME280;57877;39.750;-104.894;2023-07-13T07:32:12;83730.07;;;26.23;24.79
70437;BME280;57877;39.750;-104.894;2023-07-13T07:34:38;83727.66;;;25.89;25.05
70437;BME280;57877;39.750;-104.894;2023-07-13T07:37:04;83731.50;;;26.51;24.26
70437;BME280;57877;39.750;-104.894;2023-07-13T07:39:30;83738.54;;;26.26;24.15
70437;BME280;57877;39.750;-104.894;2023-07-13T07:41:56;83744.68;;;26.13;24.48
70437;BME280;57877;39.750;-104.894;2023-07-13T07:44:22;83754.95;;;25.97;24.04
70437;BME280;57877;39.750;-104.894;2023-07-13T07:46:47;83757.12;;;26.45;23.78
70437;BME280;57877;39.750;-104.894;2023-07-13T07:49:12;83761.97;;;26.49;23.64
70437;BME280;57877;39.750;-104.894;2023-07-13T07:51:37;83764.14;;;26.63;23.71
70437;BME280;57877;39.750;-104.894;2023-07-13T07:54:03;83760.51;;;26.15;23.74
70437;BME280;57877;39.750;-104.894;2023-07-13T07:56:29;83762.12;;;26.20;23.39
70437;BME280;57877;39.750;-104.894;2023-07-13T07:58:54;83766.39;;;26.36;23.50
70437;BME280;57877;39.750;-104.894;2023-07-13T08:01:20;83767.74;;;25.65;23.43
70437;BME280;57877;39.750;-104.894;2023-07-13T08:03:45;83769.52;;;26.03;23.69
70437;BME280;57877;39.750;-104.894;2023-07-13T08:06:10;83758.14;;;25.42;23.88
70437;BME280;57877;39.750;-104.894;2023-07-13T08:08:35;83758.41;;;25.18;23.91
70437;BME280;57877;39.750;-104.894;2023-07-13T08:11:03;83758.29;;;26.10;23.38
70437;BME280;57877;39.750;-104.894;2023-07-13T08:13:26;83761.88;;;25.91;23.18
70437;BME280;57877;39.750;-104.894;2023-07-13T08:15:51;83760.30;;;25.42;23.24
70437;BME280;57877;39.750;-104.894;2023-07-13T08:18:16;83763.98;;;24.89;23.62
70437;BME280;57877;39.750;-104.894;2023-07-13T08:20:41;83769.88;;;25.64;23.28
70437;BME280;57877;39.750;-104.894;2023-07-13T08:23:07;83763.60;;;24.99;23.63
70437;BME280;57877;39.750;-104.894;2023-07-13T08:25:31;83764.01;;;25.31;24.03
70437;BME280;57877;39.750;-104.894;2023-07-13T08:27:56;83761.60;;;25.62;23.17
70437;BME280;57877;39.750;-104.894;2023-07-13T08:30:21;83757.52;;;25.77;23.06
70437;BME280;57877;39.750;-104.894;2023-07-13T08:32:47;83754.22;;;25.69;22.91
70437;BME280;57877;39.750;-104.894;2023-07-13T08:35:12;83748.49;;;25.95;22.93
70437;BME280;57877;39.750;-104.894;2023-07-13T08:37:37;83749.36;;;25.93;23.09
70437;BME280;57877;39.750;-104.894;2023-07-13T08:40:02;83752.58;;;25.90;23.22
70437;BME280;57877;39.750;-104.894;2023-07-13T08:42:35;83749.18;;;25.88;23.05
70437;BME280;57877;39.750;-104.894;2023-07-13T08:44:57;83748.60;;;25.83;23.27
70437;BME280;57877;39.750;-104.894;2023-07-13T08:47:17;83748.42;;;25.70;23.45
70437;BME280;57877;39.750;-104.894;2023-07-13T08:49:43;83748.68;;;25.63;23.36
70437;BME280;57877;39.750;-104.894;2023-07-13T08:52:12;83749.68;;;25.34;23.94
70437;BME280;57877;39.750;-104.894;2023-07-13T08:54:35;83746.11;;;25.26;24.28
70437;BME280;57877;39.750;-104.894;2023-07-13T08:56:58;83742.45;;;25.48;24.49
70437;BME280;57877;39.750;-104.894;2023-07-13T08:59:26;83734.62;;;25.20;24.61
70437;BME280;57877;39.750;-104.894;2023-07-13T09:01:59;83728.59;;;25.04;24.03
70437;BME280;57877;39.750;-104.894;2023-07-13T09:04:16;83725.90;;;25.11;24.35
70437;BME280;57877;39.750;-104.894;2023-07-13T09:06:48;83722.41;;;24.48;24.82
70437;BME280;57877;39.750;-104.894;2023-07-13T09:09:12;83723.43;;;24.56;24.92
70437;BME280;57877;39.750;-104.894;2023-07-13T09:11:40;83722.58;;;24.87;24.82
70437;BME280;57877;39.750;-104.894;2023-07-13T09:14:00;83715.97;;;24.82;24.74
70437;BME280;57877;39.750;-104.894;2023-07-13T09:16:20;83709.71;;;24.94;24.53
70437;BME280;57877;39.750;-104.894;2023-07-13T09:18:48;83711.04;;;24.57;25.12
70437;BME280;57877;39.750;-104.894;2023-07-13T09:21:14;83711.33;;;24.69;25.48
70437;BME280;57877;39.750;-104.894;2023-07-13T09:23:37;83715.41;;;24.79;25.42
70437;BME280;57877;39.750;-104.894;2023-07-13T09:26:06;83715.96;;;24.54;25.38
70437;BME280;57877;39.750;-104.894;2023-07-13T09:28:33;83709.64;;;23.85;25.77
70437;BME280;57877;39.750;-104.894;2023-07-13T09:31:00;83703.28;;;24.15;25.93
70437;BME280;57877;39.750;-104.894;2023-07-13T09:33:21;83704.40;;;23.41;27.07
70437;BME280;57877;39.750;-104.894;2023-07-13T09:35:47;83706.12;;;23.13;27.22
70437;BME280;57877;39.750;-104.894;2023-07-13T09:38:15;83710.40;;;23.45;27.04
70437;BME280;57877;39.750;-104.894;2023-07-13T09:40:46;83711.98;;;23.36;27.17
70437;BME280;57877;39.750;-104.894;2023-07-13T09:43:06;83707.41;;;24.01;27.08
70437;BME280;57877;39.750;-104.894;2023-07-13T09:45:32;83707.19;;;22.90;28.03
70437;BME280;57877;39.750;-104.894;2023-07-13T09:48:03;83704.74;;;23.60;27.44
70437;BME280;57877;39.750;-104.894;2023-07-13T09:50:20;83702.72;;;23.69;27.07
70437;BME280;57877;39.750;-104.894;2023-07-13T09:52:47;83702.91;;;23.65;27.06
70437;BME280;57877;39.750;-104.894;2023-07-13T09:57:35;83702.36;;;23.76;26.74
70437;BME280;57877;39.750;-104.894;2023-07-13T10:00:00;83706.18;;;23.40;26.99
70437;BME280;57877;39.750;-104.894;2023-07-13T10:02:28;83700.34;;;23.31;26.62
70437;BME280;57877;39.750;-104.894;2023-07-13T10:04:56;83704.97;;;23.82;26.58
70437;BME280;57877;39.750;-104.894;2023-07-13T10:07:15;83703.59;;;23.90;26.31
70437;BME280;57877;39.750;-104.894;2023-07-13T10:09:40;83703.31;;;23.53;26.67
70437;BME280;57877;39.750;-104.894;2023-07-13T10:12:13;83705.75;;;23.39;26.57
70437;BME280;57877;39.750;-104.894;2023-07-13T10:14:30;83704.68;;;22.90;27.51
70437;BME280;57877;39.750;-104.894;2023-07-13T10:16:59;83705.38;;;22.81;27.63
70437;BME280;57877;39.750;-104.894;2023-07-13T10:19:25;83703.03;;;22.72;27.59
70437;BME280;57877;39.750;-104.894;2023-07-13T10:21:50;83700.97;;;22.93;27.22
70437;BME280;57877;39.750;-104.894;2023-07-13T10:24:17;83700.86;;;22.98;27.08
70437;BME280;57877;39.750;-104.894;2023-07-13T10:26:45;83703.68;;;23.18;26.96
70437;BME280;57877;39.750;-104.894;2023-07-13T10:29:03;83704.77;;;22.88;27.00
70437;BME280;57877;39.750;-104.894;2023-07-13T10:31:26;83705.76;;;22.85;26.98
70437;BME280;57877;39.750;-104.894;2023-07-13T10:33:50;83710.55;;;23.14;26.72
70437;BME280;57877;39.750;-104.894;2023-07-13T10:36:22;83713.33;;;23.40;26.59
70437;BME280;57877;39.750;-104.894;2023-07-13T10:38:41;83717.76;;;23.14;26.79
70437;BME280;57877;39.750;-104.894;2023-07-13T10:41:10;83723.43;;;22.92;26.81
70437;BME280;57877;39.750;-104.894;2023-07-13T10:43:34;83725.14;;;22.91;26.91
70437;BME280;57877;39.750;-104.894;2023-07-13T10:45:56;83732.14;;;22.54;27.37
70437;BME280;57877;39.750;-104.894;2023-07-13T10:48:22;83730.25;;;23.21;26.96
70437;BME280;57877;39.750;-104.894;2023-07-13T10:50:50;83733.60;;;23.25;27.09
70437;BME280;57877;39.750;-104.894;2023-07-13T10:53:18;83731.19;;;23.05;27.08
70437;BME280;57877;39.750;-104.894;2023-07-13T10:55:41;83728.35;;;23.10;27.21
70437;BME280;57877;39.750;-104.894;2023-07-13T11:00:31;83722.35;;;22.53;27.37
70437;BME280;57877;39.750;-104.894;2023-07-13T11:02:59;83718.23;;;22.13;28.03
70437;BME280;57877;39.750;-104.894;2023-07-13T11:05:27;83718.79;;;21.95;27.81
70437;BME280;57877;39.750;-104.894;2023-07-13T11:07:52;83716.95;;;21.65;28.57
70437;BME280;57877;39.750;-104.894;2023-07-13T11:10:45;83715.76;;;21.34;28.98
70437;BME280;57877;39.750;-104.894;2023-07-13T11:15:06;83712.91;;;21.79;28.92
70437;BME280;57877;39.750;-104.894;2023-07-13T11:17:34;83714.10;;;21.90;28.49
70437;BME280;57877;39.750;-104.894;2023-07-13T11:19:52;83715.20;;;22.06;28.27
70437;BME280;57877;39.750;-104.894;2023-07-13T11:22:21;83712.32;;;21.47;28.72
70437;BME280;57877;39.750;-104.894;2023-07-13T11:29:36;83717.04;;;22.10;28.26
70437;BME280;57877;39.750;-104.894;2023-07-13T11:31:55;83723.27;;;22.32;28.21
70437;BME280;57877;39.750;-104.894;2023-07-13T11:34:24;83731.70;;;22.49;28.14
70437;BME280;57877;39.750;-104.894;2023-07-13T11:36:45;83740.01;;;22.06;28.30
70437;BME280;57877;39.750;-104.894;2023-07-13T11:39:18;83744.94;;;22.36;28.24
70437;BME280;57877;39.750;-104.894;2023-07-13T11:41:37;83742.02;;;22.37;27.99
70437;BME280;57877;39.750;-104.894;2023-07-13T11:44:07;83742.67;;;22.45;28.15
70437;BME280;57877;39.750;-104.894;2023-07-13T11:46:26;83744.42;;;22.34;28.36
70437;BME280;57877;39.750;-104.894;2023-07-13T11:48:51;83744.58;;;22.24;28.39
70437;BME280;57877;39.750;-104.894;2023-07-13T11:51:20;83743.28;;;22.36;28.55
70437;BME280;57877;39.750;-104.894;2023-07-13T11:53:46;83745.51;;;22.37;29.16
70437;BME280;57877;39.750;-104.894;2023-07-13T11:56:06;83748.21;;;22.19;29.09
70437;BME280;57877;39.750;-104.894;2023-07-13T11:58:30;83747.84;;;22.00;29.35
70437;BME280;57877;39.750;-104.894;2023-07-13T12:00:58;83747.20;;;22.15;29.31
70437;BME280;57877;39.750;-104.894;2023-07-13T12:03:22;83749.07;;;22.68;28.94
70437;BME280;57877;39.750;-104.894;2023-07-13T12:08:11;83754.76;;;22.49;28.82
70437;BME280;57877;39.750;-104.894;2023-07-13T12:10:37;83758.43;;;22.26;28.77
70437;BME280;57877;39.750;-104.894;2023-07-13T12:13:04;83761.71;;;22.81;28.38
70437;BME280;57877;39.750;-104.894;2023-07-13T12:15:35;83762.89;;;22.45;28.59
70437;BME280;57877;39.750;-104.894;2023-07-13T12:17:54;83762.82;;;22.64;28.61
70437;BME280;57877;39.750;-104.894;2023-07-13T12:20:23;83764.36;;;22.80;28.64
70437;BME280;57877;39.750;-104.894;2023-07-13T12:22:47;83763.26;;;22.43;28.70
70437;BME280;57877;39.750;-104.894;2023-07-13T12:25:12;83761.03;;;22.07;29.10
70437;BME280;57877;39.750;-104.894;2023-07-13T12:27:38;83759.63;;;22.23;29.29
70437;BME280;57877;39.750;-104.894;2023-07-13T12:32:30;83759.67;;;21.94;29.92
70437;BME280;57877;39.750;-104.894;2023-07-13T12:35:01;83764.53;;;21.88;29.80
70437;BME280;57877;39.750;-104.894;2023-07-13T12:37:21;83768.83;;;21.97;30.00